createdAt,value
2022-08-11T00:01:37.100Z,39.82
2022-08-11T00:04:40.005Z,39.80
2022-08-11T00:07:48.650Z,39.94
2022-08-11T00:10:58.727Z,40.21
2022-08-11T00:14:01.585Z,40.28
2022-08-11T00:17:10.576Z,40.37
2022-08-11T00:20:16.849Z,40.42
2022-08-11T00:23:20.516Z,40.52
2022-08-11T00:26:24.290Z,40.59
2022-08-11T00:29:27.013Z,40.68
2022-08-11T00:32:30.649Z,40.78
2022-08-11T00:35:56.344Z,40.93
2022-08-11T00:39:05.539Z,41.01
2022-08-11T00:42:19.291Z,41.06
2022-08-11T00:45:32.586Z,41.19
2022-08-11T00:48:49.629Z,41.38
2022-08-11T00:52:10.379Z,41.46
2022-08-11T00:55:55.508Z,41.51
2022-08-11T00:59:13.285Z,41.75
2022-08-11T01:03:07.568Z,41.69
2022-08-11T01:06:39.494Z,41.80
2022-08-11T01:10:13.399Z,41.89
2022-08-11T01:13:30.660Z,41.91
2022-08-11T01:16:45.450Z,42.34
2022-08-11T01:20:47.573Z,42.29
2022-08-11T01:23:47.776Z,42.38
2022-08-11T01:27:21.584Z,42.55
2022-08-11T01:30:54.937Z,42.89
2022-08-11T01:34:25.509Z,42.91
2022-08-11T01:37:53.123Z,43.06
2022-08-11T01:41:52.759Z,43.36
2022-08-11T01:45:09.031Z,43.61
2022-08-11T01:48:42.464Z,43.75
2022-08-11T01:52:07.001Z,43.93
2022-08-11T01:55:27.031Z,43.89
2022-08-11T01:58:58.553Z,43.83
2022-08-11T02:02:21.408Z,43.91
2022-08-11T02:06:01.261Z,43.96
2022-08-11T02:09:06.802Z,44.11
2022-08-11T02:12:22.718Z,44.01
2022-08-11T02:15:38.209Z,44.07
2022-08-11T02:19:04.151Z,44.14
2022-08-11T02:22:35.583Z,44.20
2022-08-11T02:25:44.549Z,44.07
2022-08-11T02:29:03.712Z,44.07
2022-08-11T02:32:42.613Z,44.13
2022-08-11T02:35:53.804Z,44.05
2022-08-11T02:39:04.359Z,44.10
2022-08-11T02:42:35.105Z,44.10
2022-08-11T02:46:27.552Z,44.16
2022-08-11T02:50:02.770Z,44.23
2022-08-11T02:53:17.895Z,44.33
2022-08-11T02:56:37.679Z,44.35
2022-08-11T03:00:11.769Z,44.58
2022-08-11T03:03:25.717Z,44.95
2022-08-11T03:06:52.536Z,44.92
2022-08-11T03:10:17.929Z,45.01
2022-08-11T03:13:48.502Z,45.44
2022-08-11T03:17:29.908Z,45.59
2022-08-11T03:20:43.636Z,45.54
2022-08-11T03:23:54.855Z,45.40
2022-08-11T03:27:24.154Z,45.50
2022-08-11T03:30:39.829Z,45.64
2022-08-11T03:34:07.239Z,46.02
2022-08-11T03:37:47.948Z,45.83
2022-08-11T03:42:04.433Z,46.40
2022-08-11T03:45:26.332Z,46.41
2022-08-11T03:49:05.709Z,46.18
2022-08-11T03:52:48.003Z,46.94
2022-08-11T03:56:24.856Z,46.60
2022-08-11T03:59:53.549Z,46.81
2022-08-11T04:03:31.057Z,46.95
2022-08-11T04:06:52.920Z,46.94
2022-08-11T04:10:43.525Z,46.94
2022-08-11T04:14:30.859Z,46.88
2022-08-11T04:18:02.299Z,46.64
2022-08-11T04:21:35.445Z,46.66
2022-08-11T04:25:29.107Z,46.70
2022-08-11T04:28:50.958Z,46.70
2022-08-11T04:32:12.154Z,46.68
2022-08-11T04:35:23.857Z,46.54
2022-08-11T04:38:55.010Z,47.07
2022-08-11T04:42:29.610Z,46.93
2022-08-11T04:45:39.714Z,46.88
2022-08-11T04:49:26.163Z,47.10
2022-08-11T04:53:17.049Z,47.00
2022-08-11T04:56:45.161Z,46.79
2022-08-11T05:00:23.288Z,46.50
2022-08-11T05:03:28.413Z,46.42
2022-08-11T05:06:36.399Z,46.80
2022-08-11T05:09:57.674Z,47.67
2022-08-11T05:13:25.858Z,54.13
2022-08-11T05:16:59.933Z,48.94
2022-08-11T05:20:20.842Z,47.94
2022-08-11T05:23:47.346Z,47.54
2022-08-11T05:27:13.642Z,47.15
2022-08-11T05:30:36.437Z,46.97
2022-08-11T05:34:12.764Z,46.91
2022-08-11T05:37:40.559Z,46.77
2022-08-11T05:41:08.388Z,46.29
2022-08-11T05:44:37.899Z,46.44
2022-08-11T05:48:00.712Z,45.50
2022-08-11T05:51:30.399Z,46.09
2022-08-11T05:54:54.458Z,44.82
2022-08-11T05:57:59.404Z,45.20
2022-08-11T06:01:02.386Z,44.47
2022-08-11T06:04:16.974Z,43.90
2022-08-11T06:07:29.791Z,44.49
2022-08-11T06:10:50.256Z,42.96
2022-08-11T06:13:54.255Z,42.45
2022-08-11T06:17:00.563Z,42.16
2022-08-11T06:20:08.154Z,41.87
2022-08-11T06:23:11.388Z,41.61
2022-08-11T06:26:15.600Z,41.17
2022-08-11T06:29:19.413Z,41.07
2022-08-11T06:32:25.498Z,40.62
2022-08-11T06:35:38.835Z,40.49
2022-08-11T06:38:52.928Z,41.09
2022-08-11T06:42:32.692Z,39.90
2022-08-11T06:45:51.964Z,39.54
2022-08-11T06:48:56.207Z,39.53
2022-08-11T06:52:45.122Z,40.30
2022-08-11T06:55:58.916Z,38.55
2022-08-11T06:59:21.604Z,38.37
2022-08-11T07:02:36.460Z,37.28
2022-08-11T07:05:47.601Z,36.71
2022-08-11T07:09:18.010Z,36.01
2022-08-11T07:12:47.217Z,35.95
2022-08-11T07:16:11.349Z,34.72
2022-08-11T07:19:38.070Z,34.53
2022-08-11T07:23:02.419Z,33.96
2022-08-11T07:26:29.789Z,32.83
2022-08-11T07:29:33.451Z,32.86
2022-08-11T07:32:55.909Z,32.37
2022-08-11T07:36:01.978Z,32.34
2022-08-11T07:39:04.594Z,31.52
2022-08-11T07:42:10.288Z,31.56
2022-08-11T07:45:34.579Z,29.80
2022-08-11T07:48:56.051Z,29.37
2022-08-11T07:52:17.566Z,28.67
2022-08-11T07:55:51.291Z,28.38
2022-08-11T07:59:08.381Z,27.61
2022-08-11T08:02:32.076Z,27.41
2022-08-11T08:05:53.539Z,26.89
2022-08-11T08:09:16.028Z,27.12
2022-08-11T08:12:41.267Z,26.01
2022-08-11T08:16:02.438Z,26.15
2022-08-11T08:19:07.126Z,24.96
2022-08-11T08:22:48.590Z,24.81
2022-08-11T08:25:41.633Z,24.32
2022-08-11T08:28:46.591Z,23.52
2022-08-11T08:31:50.085Z,23.13
2022-08-11T08:34:55.619Z,23.76
2022-08-11T08:38:00.759Z,23.64
2022-08-11T08:41:03.855Z,23.77
2022-08-11T08:44:35.184Z,24.47
2022-08-11T08:47:43.495Z,24.56
2022-08-11T08:51:13.030Z,23.57
2022-08-11T08:54:34.081Z,22.51
2022-08-11T08:57:40.254Z,22.39
2022-08-11T09:00:45.571Z,21.58
2022-08-11T09:04:05.218Z,20.85
2022-08-11T09:07:17.155Z,20.05
2022-08-11T09:10:21.134Z,18.33
2022-08-11T09:13:23.746Z,18.25
2022-08-11T09:16:26.659Z,17.56
2022-08-11T09:19:29.107Z,16.91
2022-08-11T09:23:19.229Z,16.69
2022-08-11T09:26:33.740Z,16.24
2022-08-11T09:29:38.396Z,16.50
2022-08-11T09:32:42.002Z,15.89
2022-08-11T09:35:47.279Z,15.32
2022-08-11T09:39:09.741Z,15.19
2022-08-11T09:42:16.292Z,15.41
2022-08-11T09:45:19.283Z,16.04
2022-08-11T09:48:24.163Z,16.90
2022-08-11T09:51:31.590Z,17.58
2022-08-11T09:54:34.401Z,18.16
2022-08-11T09:57:59.083Z,18.87
2022-08-11T10:01:03.049Z,19.90
2022-08-11T10:04:17.619Z,21.00
2022-08-11T10:07:20.988Z,21.06
2022-08-11T10:10:24.756Z,20.21
2022-08-11T10:14:32.051Z,19.89
2022-08-11T10:16:57.401Z,20.02
2022-08-11T10:20:05.279Z,19.15
2022-08-11T10:23:30.799Z,18.08
2022-08-11T10:26:53.721Z,18.33
2022-08-11T10:30:15.668Z,18.54
2022-08-11T10:33:42.955Z,18.16
2022-08-11T10:37:03.684Z,17.50
2022-08-11T10:40:07.871Z,18.27
2022-08-11T10:43:56.809Z,18.23
2022-08-11T10:46:57.868Z,18.69
2022-08-11T10:50:41.243Z,18.47
2022-08-11T10:54:12.765Z,18.95
2022-08-11T10:57:36.257Z,19.32
2022-08-11T11:00:38.701Z,18.37
2022-08-11T11:03:42.765Z,18.83
2022-08-11T11:07:04.783Z,18.42
2022-08-11T11:10:09.584Z,18.82
2022-08-11T11:13:30.783Z,19.84
2022-08-11T11:16:54.301Z,19.46
2022-08-11T11:19:58.732Z,18.07
2022-08-11T11:23:09.029Z,17.65
2022-08-11T11:26:28.585Z,16.66
2022-08-11T11:29:57.262Z,16.38
2022-08-11T11:33:15.212Z,16.54
2022-08-11T11:36:36.289Z,15.27
2022-08-11T11:39:39.538Z,16.13
2022-08-11T11:42:45.444Z,16.26
2022-08-11T11:45:47.869Z,17.35
2022-08-11T11:48:50.543Z,17.70
2022-08-11T11:51:54.789Z,18.22
2022-08-11T11:54:58.586Z,18.80
2022-08-11T11:58:22.262Z,19.32
2022-08-11T12:01:26.284Z,19.63
2022-08-11T12:04:29.417Z,20.10
2022-08-11T12:08:05.072Z,20.08
2022-08-11T12:11:32.272Z,20.08
2022-08-11T12:14:36.620Z,20.58
2022-08-11T12:17:40.080Z,19.54
2022-08-11T12:20:45.230Z,19.04
2022-08-11T12:24:07.822Z,18.30
2022-08-11T12:27:25.008Z,18.06
2022-08-11T12:30:28.998Z,17.92
2022-08-11T12:33:31.701Z,17.90
2022-08-11T12:36:39.260Z,18.10
2022-08-11T12:40:16.047Z,17.82
2022-08-11T12:43:56.932Z,18.09
2022-08-11T12:47:02.204Z,18.63
2022-08-11T12:50:24.267Z,18.95
2022-08-11T12:53:29.713Z,19.10
2022-08-11T12:56:57.928Z,19.75
2022-08-11T13:00:20.503Z,19.89
2022-08-11T13:03:43.042Z,20.14
2022-08-11T13:06:45.524Z,20.07
2022-08-11T13:09:49.126Z,19.89
2022-08-11T13:12:54.649Z,19.73
2022-08-11T13:15:58.186Z,20.03
2022-08-11T13:19:01.311Z,19.76
2022-08-11T13:22:07.355Z,19.85
2022-08-11T13:25:10.078Z,19.73
2022-08-11T13:28:21.222Z,19.80
2022-08-11T13:31:23.896Z,20.04
2022-08-11T13:34:27.362Z,20.07
2022-08-11T13:38:18.563Z,20.25
2022-08-11T13:40:56.251Z,20.85
2022-08-11T13:43:59.386Z,21.31
2022-08-11T13:47:08.664Z,21.88
2022-08-11T13:50:13.948Z,22.56
2022-08-11T13:53:20.949Z,22.42
2022-08-11T13:56:25.205Z,22.90
2022-08-11T13:59:30.744Z,22.85
2022-08-11T14:02:34.314Z,22.93
2022-08-11T14:05:40.894Z,22.75
2022-08-11T14:08:53.813Z,23.22
2022-08-11T14:12:24.589Z,22.81
2022-08-11T14:15:26.913Z,23.13
2022-08-11T14:18:31.216Z,22.93
2022-08-11T14:21:55.736Z,22.91
2022-08-11T14:24:59.103Z,22.89
2022-08-11T14:28:31.146Z,22.70
2022-08-11T14:31:25.721Z,22.76
2022-08-11T14:34:30.190Z,22.79
2022-08-11T14:37:33.018Z,23.51
2022-08-11T14:40:54.081Z,22.78
2022-08-11T14:44:16.069Z,22.83
2022-08-11T14:47:24.114Z,22.97
2022-08-11T14:50:30.547Z,23.01
2022-08-11T14:53:33.148Z,23.02
2022-08-11T14:56:37.182Z,24.36
2022-08-11T14:59:40.883Z,23.15
2022-08-11T15:03:06.350Z,23.03
2022-08-11T15:06:08.676Z,23.10
2022-08-11T15:09:11.359Z,22.96
2022-08-11T15:12:31.510Z,23.06
2022-08-11T15:16:03.792Z,22.99
2022-08-11T15:19:08.503Z,23.16
2022-08-11T15:22:29.971Z,23.30
2022-08-11T15:25:34.908Z,23.61
2022-08-11T15:29:02.776Z,23.47
2022-08-11T15:32:21.684Z,23.59
2022-08-11T15:35:44.822Z,23.65
2022-08-11T15:39:19.629Z,23.88
2022-08-11T15:42:44.465Z,24.82
2022-08-11T15:45:52.096Z,24.48
2022-08-11T15:49:10.922Z,24.37
2022-08-11T15:52:19.613Z,24.52
2022-08-11T15:55:24.316Z,24.75
2022-08-11T15:59:27.547Z,25.01
2022-08-11T16:02:40.767Z,25.20
2022-08-11T16:05:45.687Z,25.59
2022-08-11T16:08:50.890Z,26.04
2022-08-11T16:11:56.937Z,26.47
2022-08-11T16:15:23.771Z,26.73
2022-08-11T16:18:40.757Z,27.07
2022-08-11T16:21:44.746Z,27.14
2022-08-11T16:27:03.231Z,27.54
2022-08-11T16:28:16.802Z,27.71
2022-08-11T16:31:21.784Z,27.82
2022-08-11T16:34:42.905Z,28.17
2022-08-11T16:38:05.317Z,28.24
2022-08-11T16:41:42.135Z,28.30
2022-08-11T16:45:03.677Z,28.16
2022-08-11T16:48:35.161Z,28.03
2022-08-11T16:51:31.861Z,28.10
2022-08-11T16:54:35.219Z,28.10
2022-08-11T16:57:57.570Z,28.37
2022-08-11T17:01:02.507Z,28.35
2022-08-11T17:04:34.573Z,28.47
2022-08-11T17:07:58.082Z,29.23
2022-08-11T17:11:24.207Z,29.74
2022-08-11T17:14:36.665Z,29.82
2022-08-11T17:17:40.491Z,30.37
2022-08-11T17:20:44.309Z,31.12
2022-08-11T17:23:51.899Z,31.61
2022-08-11T17:26:57.562Z,32.25
2022-08-11T17:30:04.159Z,33.30
2022-08-11T17:33:29.772Z,33.53
2022-08-11T17:36:34.011Z,33.97
2022-08-11T17:39:36.821Z,34.72
2022-08-11T17:42:59.892Z,34.81
2022-08-11T17:46:08.348Z,34.93
2022-08-11T17:49:12.992Z,35.51
2022-08-11T17:52:35.578Z,35.65
2022-08-11T17:55:58.444Z,36.15
2022-08-11T17:59:20.984Z,36.26
2022-08-11T18:02:59.466Z,36.18
2022-08-11T18:06:04.890Z,36.90
2022-08-11T18:09:30.795Z,36.89
2022-08-11T18:12:52.222Z,36.77
2022-08-11T18:16:13.163Z,37.05
2022-08-11T18:19:34.607Z,37.47
2022-08-11T18:22:59.783Z,37.11
2022-08-11T18:26:23.866Z,37.46
2022-08-11T18:29:45.747Z,37.66
2022-08-11T18:33:45.156Z,37.91
2022-08-11T18:36:59.440Z,37.97
2022-08-11T18:40:27.518Z,37.99
2022-08-11T18:43:51.409Z,38.10
2022-08-11T18:47:15.601Z,37.95
2022-08-11T18:50:39.776Z,37.87
2022-08-11T18:54:05.687Z,37.79
2022-08-11T18:57:27.089Z,37.98
2022-08-11T19:00:50.418Z,37.96
2022-08-11T19:04:17.367Z,37.72
2022-08-11T19:07:41.991Z,37.97
2022-08-11T19:11:04.355Z,37.80
2022-08-11T19:14:27.156Z,37.82
2022-08-11T19:17:51.107Z,38.06
2022-08-11T19:21:14.480Z,38.29
2022-08-11T19:24:36.872Z,38.18
2022-08-11T19:27:59.356Z,38.32
2022-08-11T19:31:21.659Z,38.36
2022-08-11T19:34:44.136Z,38.07
2022-08-11T19:38:06.469Z,38.02
2022-08-11T19:41:57.185Z,37.84
2022-08-11T19:45:09.360Z,37.90
2022-08-11T19:48:32.591Z,37.91
2022-08-11T19:51:55.743Z,37.95
2022-08-11T19:55:18.426Z,38.11
2022-08-11T19:58:39.737Z,38.25
2022-08-11T20:02:13.592Z,38.26
2022-08-11T20:05:36.067Z,38.15
2022-08-11T20:09:01.156Z,38.40
2022-08-11T20:12:24.510Z,38.46
2022-08-11T20:15:46.582Z,38.63
2022-08-11T20:19:09.987Z,38.72
2022-08-11T20:22:32.993Z,38.71
2022-08-11T20:26:08.543Z,38.84
2022-08-11T20:29:44.653Z,38.94
2022-08-11T20:33:06.801Z,38.87
2022-08-11T20:36:30.299Z,39.23
2022-08-11T20:39:52.213Z,39.21
2022-08-11T20:44:05.165Z,39.45
2022-08-11T20:46:58.781Z,39.76
2022-08-11T20:50:21.104Z,39.61
2022-08-11T20:53:45.378Z,39.80
2022-08-11T20:57:12.652Z,39.82
2022-08-11T21:00:38.840Z,39.86
2022-08-11T21:04:00.910Z,40.02
2022-08-11T21:07:28.239Z,40.05
2022-08-11T21:10:52.248Z,40.38
2022-08-11T21:14:13.808Z,40.42
2022-08-11T21:17:36.698Z,40.33
2022-08-11T21:21:20.748Z,40.59
2022-08-11T21:24:48.395Z,40.52
2022-08-11T21:28:12.041Z,40.63
2022-08-11T21:31:34.154Z,40.68
2022-08-11T21:34:56.594Z,40.56
2022-08-11T21:38:18.679Z,40.74
2022-08-11T21:41:40.953Z,40.84
2022-08-11T21:45:11.724Z,41.17
2022-08-11T21:48:33.593Z,41.37
2022-08-11T21:51:54.483Z,41.34
2022-08-11T21:55:17.186Z,41.25
2022-08-11T21:58:39.228Z,41.26
2022-08-11T22:02:02.351Z,41.33
2022-08-11T22:05:24.788Z,41.28
2022-08-11T22:08:47.312Z,41.39
2022-08-11T22:12:33.544Z,41.34
2022-08-11T22:15:51.002Z,41.44
2022-08-11T22:19:12.439Z,41.23
2022-08-11T22:22:34.496Z,41.25
2022-08-11T22:26:14.199Z,41.31
2022-08-11T22:29:41.320Z,41.42
2022-08-11T22:33:15.348Z,41.54
2022-08-11T22:36:37.091Z,41.68
2022-08-11T22:40:02.079Z,41.70
2022-08-11T22:43:24.496Z,41.76
2022-08-11T22:46:47.991Z,41.85
2022-08-11T22:50:15.873Z,41.81
2022-08-11T22:53:57.682Z,42.00
2022-08-11T22:57:18.731Z,41.90
2022-08-11T23:00:39.876Z,41.91
2022-08-11T23:04:01.413Z,41.89
2022-08-11T23:07:50.434Z,41.95
2022-08-11T23:11:06.911Z,42.02
2022-08-11T23:14:28.229Z,41.96
2022-08-11T23:17:50.969Z,42.00
2022-08-11T23:21:12.877Z,42.18
2022-08-11T23:24:35.541Z,42.08
2022-08-11T23:27:57.532Z,42.22
2022-08-11T23:31:19.581Z,42.30
2022-08-11T23:35:04.882Z,42.73
2022-08-11T23:38:26.449Z,42.85
2022-08-11T23:41:47.976Z,42.95
2022-08-11T23:45:09.662Z,43.00
2022-08-11T23:48:35.511Z,43.24
2022-08-11T23:51:58.898Z,43.24
2022-08-11T23:55:21.066Z,43.29
2022-08-11T23:58:42.124Z,43.54
